Lahaina Weather    as of  Thu 03:58 05/26      Conditions     METAR     Leeward Waters     Hawaiian Islands     Policies
TODAY
Sunny with isolated showers morning, then partly sunny with scattered showers afternoon. Highs 81-89. Northeast winds up-10 mph with gusts-25 mph. Chance rain 30%.
TONIGHT
Partly cloudy with isolated showers. Lows 64-72. East winds up-10 mph early evening becoming light. Chance rain 20%.
FRIDAY
Sunny morning, then partly sunny with isolated showers afternoon. Highs 81-89. Light winds becoming northwest up-10 mph late morning, then shifting-the east early afternoon shifting-the south late afternoon. Chance rain 20%.
FRIDAY NIGHT
Partly cloudy. Lows 64-72. Light winds.
SATURDAY
Mostly sunny. Isolated showers afternoon. Highs 81-89. Light winds. Chance rain 20%.
Maui Satellite
Expected Radar Hazards
Predominant Wx
Radar
Hazard Chart
Windspeed Forecast Wind Gust Forecast Tropical Outlook
Windspeed Chart
Windgust Chart
Satellite

Current Conditions TOP

LocationWeatherTemp (F)Wind
Speed
Wind
Gusts
Wind
Dir
VisibilityDewpointPressure
(mb)
Lahaina - West MauiLight Rain Fog/Mist72.04.6--Variable3.0066.2--
Lanai CityFair68.06.9--North10.0064.91017.4
KaunakakaiPartly Cloudy70.04.6--East10.0064.91018.4
KahuluiFair67.06.9--Southeast10.0066.01018.1
HonoluluPartly Cloudy72.04.6--North10.0070.01017.6
Kailua / KonaA Few Clouds74.09.2--Southeast10.0070.01017.0

METAR TOP

PHJH 260345Z VRB04KT 3SM -RABR OVC035 22/19 A3006 RMK LAST
PHNY 261256Z AUTO 35006KT 10SM CLR 20/18 A3010 RMK AO2 SLP174
PHMK 261254Z AUTO 08004KT 10SM SCT110 21/18 A3007 RMK AO2 SLP184
PHOG 261254Z AUTO 14006KT 10SM CLR 19/19 A3005 RMK AO2 SLP181
PHNL 261253Z COR 02004KT 10SM FEW027 SCT075 SCT100 22/21 A3005 RMK
PHKO 261253Z AUTO 14008KT 10SM FEW060 23/21 A3003 RMK AO2 SLP170
Tap to learn about METAR

Leeward Waters Forecasts TOP

MAUI COUNTY LEEWARD WATERS MAALAEA BAY PAILOLO CHANNEL
TODAY
Northeast winds 10 kt. Wind waves 4 ft. Isolated showers.
TODAY
Northwest winds 10 kt. Wind waves 2 ft or less. Isolated showers.
TODAY
East winds 15 kt. Wind waves 5 ft. Isolated showers.
TONIGHT
East winds 15 kt. Wind waves 4 ft.
TONIGHT
North winds 10 kt evening becoming variable less than 10 kt. Wind waves 2 ft or less.
TONIGHT
East winds 15 kt. Wind waves 5 ft. Isolated showers.
FRIDAY
Northeast winds 10 kt backing northwest afternoon. Wind waves 3 ft. Southwest swell 3 ft. Isolated showers afternoon.
FRIDAY
North winds 10 kt backing west afternoon. Wind waves 2 ft or less. Southwest swell 3 ft afternoon. Isolated showers afternoon.
FRIDAY
East winds 15 kt. Wind waves 4 ft. Southwest swell 3 ft. Isolated showers.
FRIDAY NIGHT
East winds 15 kt. Wind waves 3 ft. Southwest swell 3 ft evening. Isolated showers.
FRIDAY NIGHT
Winds variable less than 10 kt. Wind waves 2 ft or less. Southwest swell 3 ft evening.
FRIDAY NIGHT
East winds 15 kt. Wind waves 4 ft. Southwest swell 3 ft evening. Isolated showers.
SATURDAY
Northeast winds 10 kt morning becoming variable less than 10 kt. Wind waves 3 ft morning then 2 ft or less. Isolated showers.
SATURDAY
Winds variable less than 10 kt. Wind waves 2 ft or less. Isolated showers afternoon.
SATURDAY
East winds 10 kt. Wind waves 4 ft. Isolated showers.

Hawaiian Islands Weather TOP

Synopsis: A destabilizing upper trough will move east the islands today, decreasing the chance for enhanced showers and allowing our airmass-gradually stabilize. However, surface troughing will keep winds lighter than normal through next week. Daytime sea breezes and nighttime land breezes will prevail this weekend.
Discussion: Satellite loop shows the axis an upper trough passing eastward across the islands this morning. This upper trough, combined with abundant low level moisture, produced bouts heavy showers overnight, mainly across portions Oahu. This activity has decreased dramatically over the past few hours. The upper trough axis is expected-continue sliding east through the day today, allowing our airmass-gradually stabilize. Enhanced showers may still occur briefly this morning, but a transition-a drier convective pattern is expected as the upper trough departs. Surface winds are ...
Aviation: Brief reductions-cig/vsby will be possible in passing -SHRA mainly over mountain and north thru east sections the islands through mid morning. The highest probabilities for rain are expected over windward sections Oahu, Molokai, Maui and the Big Island. This afternoon showers are expected-develop over the mountains and interior the islands, with some reductions-cig/vsby once again possible. The showers should diminish evening with loss daytime heating. Airmet Sierra remains in effect for mountain obscuration across Oahu, Molokai and Maui. Conditions should ...
Marine: Combined seas will remain below small craft advisory threshold through the forecast period. A moderate southwest swell arriving from the Tasman sea is expected-peak late today and Friday, then decline during the weekend. Since there are so many islands along the path the swell, surf is likely-be inconsistent. See the the Collaborative Nearshore Swell and Wind Forecast (SRDHFO) for details on this swell. Otherwise rather small surf is expected.

Policies TOP

Terms of Service
USE THIS SITE AT YOUR OWN RISK!!! This page is an artistic expression not scientific communication. No warranties expressed or implied. None. Zip. Nada. This entertainment site is a programming exercise for retrieving NOAA/NWS/NASA data and experimenting with layout. No site data are verified. Timeliness not assured. Browsers other than Chrome might be sad.

Privacy
lahainaweather.com (or .org, .net) does NOT request, record nor retain any personally identifiable information. Page views may be counted. Caller's IP address may be logged.